Knickerbocker — WDC7987 — position and weather

sailwx.info

Track history (hours):
 
Tides and Currents Weather Stations Pressure Air Temp Water Temp Dewpoint Dewpoint Depression Visibility Wind Speed Wind Dir Waves Ship Positions

Knickerbocker

Owner: Christopher Corp., Newport, RI. More information available from US FCC via Universal Licensing System and Coast Guard Vessel Documentation Center.

Last reported at 2015-Sep-02 14:33 UTC. Time now 2015-Sep-02 14:51 UTC.
Position N 40°53' W 073°32'.

Length 36 m; draft 3.6 m.

Type: Pleasure craft. MMSI: 367079960.

Date/timePositionNaut miles runAvg speedWind from/ knotsBaromVisibWave heightAir tempDewpointWater temp
2015-Sep-02 14:33N 40°53' W 073°32'0 0.0
2015-Sep-02 13:32N 40°53' W 073°32'0 0.0
2015-Sep-02 12:31N 40°53' W 073°32'0 0.0
2015-Sep-02 11:27N 40°53' W 073°32'0 0.0
2015-Sep-02 10:31N 40°53' W 073°32'0 0.0
2015-Sep-02 09:32N 40°53' W 073°32'0 0.0
2015-Sep-02 08:33N 40°53' W 073°32'0 0.0
2015-Sep-02 07:29N 40°53' W 073°32'0 0.0
2015-Sep-02 06:33N 40°53' W 073°32'0 0.0
2015-Sep-02 05:31N 40°53' W 073°32'0 0.0
2015-Sep-02 04:27N 40°53' W 073°32'0 0.0
2015-Sep-02 03:32N 40°53' W 073°32'0 0.0
2015-Sep-02 02:31N 40°53' W 073°32'0 0.0
2015-Sep-02 01:32N 40°53' W 073°32'0 0.0
2015-Sep-02 00:32N 40°53' W 073°32'0 0.0
2015-Sep-01 23:17N 40°53' W 073°32'0 0.0
2015-Sep-01 16:11N 40°53' W 073°32'0 0.0
2015-Sep-01 12:08N 40°53' W 073°32'0 0.0
2015-Sep-01 03:17N 40°53' W 073°32'0 0.0
2015-Sep-01 02:26N 40°53' W 073°32'0 0.0
2015-Sep-01 01:32N 40°53' W 073°32'0 0.0
2015-Aug-31 15:05N 40°53' W 073°32'0 0.0
2015-Aug-31 14:32N 40°53' W 073°32'1 0.1
2015-Aug-30 23:31N 40°53' W 073°31'1 1.0
2015-Aug-30 22:28N 40°54' W 073°29'0 0.0
2015-Aug-30 21:14N 40°54' W 073°29'0 0.0
2015-Aug-30 20:27N 40°54' W 073°30'3 0.1
2015-Aug-30 00:32N 40°56' W 073°31'2 2.0
2015-Aug-29 23:33N 40°56' W 073°34'4 0.1
2015-Aug-28 12:30N 40°53' W 073°32'0 0.0
2015-Aug-27 09:30N 40°53' W 073°32'0 0.0
2015-Aug-27 08:33N 40°53' W 073°32'0 0.0
2015-Aug-27 07:33N 40°53' W 073°32'0 0.0
2015-Aug-27 05:09N 40°53' W 073°32'0 0.0
2015-Aug-26 11:21N 40°53' W 073°32'0 0.0
2015-Aug-26 10:33N 40°53' W 073°32'0 0.0
2015-Aug-26 09:33N 40°53' W 073°32'0 0.0
2015-Aug-26 08:30N 40°53' W 073°32'0 0.0
2015-Aug-26 07:33N 40°53' W 073°32'0 0.0
2015-Aug-26 05:27N 40°53' W 073°32'0 0.0
2015-Aug-26 04:30N 40°53' W 073°32'0 0.0
2015-Aug-26 02:09N 40°53' W 073°32'0 0.0
2015-Aug-26 01:24N 40°53' W 073°32'0 0.0
2015-Aug-26 00:18N 40°53' W 073°32'0 0.0
2015-Aug-25 10:33N 40°53' W 073°32'0 0.0
2015-Aug-25 09:12N 40°53' W 073°32'0 0.0
2015-Aug-25 08:27N 40°53' W 073°32'0 0.0
2015-Aug-25 07:30N 40°53' W 073°32'0 0.0
2015-Aug-25 06:30N 40°53' W 073°32'0 0.0
2015-Aug-25 05:30N 40°53' W 073°32'0 0.0
2015-Aug-25 04:30N 40°53' W 073°32'0 0.0
2015-Aug-25 03:30N 40°53' W 073°32'0 0.0
2015-Aug-25 02:33N 40°53' W 073°32'0 0.0
2015-Aug-25 01:30N 40°53' W 073°32'0 0.0
2015-Aug-25 00:33N 40°53' W 073°32'0 0.0
2015-Aug-24 18:33N 40°53' W 073°32'0 0.0
2015-Aug-24 17:33N 40°53' W 073°32'  
Track history (hours):
 
Tides and Currents Weather Stations Pressure Air Temp Water Temp Dewpoint Dewpoint Depression Visibility Wind Speed Wind Dir Waves Ship Positions

Knickerbocker

Owner: Christopher Corp., Newport, RI. More information available from US FCC via Universal Licensing System and Coast Guard Vessel Documentation Center.

Last reported at 2015-Sep-02 14:33 UTC. Time now 2015-Sep-02 14:51 UTC.
Position N 40°53' W 073°32'.

Length 36 m; draft 3.6 m.

Type: Pleasure craft. MMSI: 367079960.

Date/timePositionNaut miles runAvg speedWind from/ knotsBaromVisibWave heightAir tempDewpointWater temp
2015-Sep-02 14:33N 40°53' W 073°32'0 0.0
2015-Sep-02 13:32N 40°53' W 073°32'0 0.0
2015-Sep-02 12:31N 40°53' W 073°32'0 0.0
2015-Sep-02 11:27N 40°53' W 073°32'0 0.0
2015-Sep-02 10:31N 40°53' W 073°32'0 0.0
2015-Sep-02 09:32N 40°53' W 073°32'0 0.0
2015-Sep-02 08:33N 40°53' W 073°32'0 0.0
2015-Sep-02 07:29N 40°53' W 073°32'0 0.0
2015-Sep-02 06:33N 40°53' W 073°32'0 0.0
2015-Sep-02 05:31N 40°53' W 073°32'0 0.0
2015-Sep-02 04:27N 40°53' W 073°32'0 0.0
2015-Sep-02 03:32N 40°53' W 073°32'0 0.0
2015-Sep-02 02:31N 40°53' W 073°32'0 0.0
2015-Sep-02 01:32N 40°53' W 073°32'0 0.0
2015-Sep-02 00:32N 40°53' W 073°32'0 0.0
2015-Sep-01 23:17N 40°53' W 073°32'0 0.0
2015-Sep-01 16:11N 40°53' W 073°32'0 0.0
2015-Sep-01 12:08N 40°53' W 073°32'0 0.0
2015-Sep-01 03:17N 40°53' W 073°32'0 0.0
2015-Sep-01 02:26N 40°53' W 073°32'0 0.0
2015-Sep-01 01:32N 40°53' W 073°32'0 0.0
2015-Aug-31 15:05N 40°53' W 073°32'0 0.0
2015-Aug-31 14:32N 40°53' W 073°32'1 0.1
2015-Aug-30 23:31N 40°53' W 073°31'1 1.0
2015-Aug-30 22:28N 40°54' W 073°29'0 0.0
2015-Aug-30 21:14N 40°54' W 073°29'0 0.0
2015-Aug-30 20:27N 40°54' W 073°30'3 0.1
2015-Aug-30 00:32N 40°56' W 073°31'2 2.0
2015-Aug-29 23:33N 40°56' W 073°34'4 0.1
2015-Aug-28 12:30N 40°53' W 073°32'0 0.0
2015-Aug-27 09:30N 40°53' W 073°32'0 0.0
2015-Aug-27 08:33N 40°53' W 073°32'0 0.0
2015-Aug-27 07:33N 40°53' W 073°32'0 0.0
2015-Aug-27 05:09N 40°53' W 073°32'0 0.0
2015-Aug-26 11:21N 40°53' W 073°32'0 0.0
2015-Aug-26 10:33N 40°53' W 073°32'0 0.0
2015-Aug-26 09:33N 40°53' W 073°32'0 0.0
2015-Aug-26 08:30N 40°53' W 073°32'0 0.0
2015-Aug-26 07:33N 40°53' W 073°32'0 0.0
2015-Aug-26 05:27N 40°53' W 073°32'0 0.0
2015-Aug-26 04:30N 40°53' W 073°32'0 0.0
2015-Aug-26 02:09N 40°53' W 073°32'0 0.0
2015-Aug-26 01:24N 40°53' W 073°32'0 0.0
2015-Aug-26 00:18N 40°53' W 073°32'0 0.0
2015-Aug-25 10:33N 40°53' W 073°32'0 0.0
2015-Aug-25 09:12N 40°53' W 073°32'0 0.0
2015-Aug-25 08:27N 40°53' W 073°32'0 0.0
2015-Aug-25 07:30N 40°53' W 073°32'0 0.0
2015-Aug-25 06:30N 40°53' W 073°32'0 0.0
2015-Aug-25 05:30N 40°53' W 073°32'0 0.0
2015-Aug-25 04:30N 40°53' W 073°32'0 0.0
2015-Aug-25 03:30N 40°53' W 073°32'0 0.0
2015-Aug-25 02:33N 40°53' W 073°32'0 0.0
2015-Aug-25 01:30N 40°53' W 073°32'0 0.0
2015-Aug-25 00:33N 40°53' W 073°32'0 0.0
2015-Aug-24 18:33N 40°53' W 073°32'0 0.0
2015-Aug-24 17:33N 40°53' W 073°32'  

Dump ship's entire track history